Time;durP1;ratioP1;P1;durP2;ratioP2;P2;SDS_P1;SDS_P2;PMS_P1;PMS_P2;Temp;Humidity;BMP_temperature;BMP_pressure;BME280_temperature;BME280_humidity;BME280_pressure;Samples;Min_cycle;Max_cycle;Signal;HPM_P1;HPM_P2
2021/04/29 00:02:16;;;;;;;;;;;6.00;91.60;;;;;;4950217;29;19957;-63
2021/04/29 00:04:42;;;;;;;;;;;6.00;91.80;;;;;;4950062;28;20330;-63
2021/04/29 00:07:08;;;;;;;;;;;6.00;92.30;;;;;;4950468;29;20016;-64
2021/04/29 00:09:35;;;;;;;;;;;5.90;92.50;;;;;;4950191;28;19927;-64
2021/04/29 00:12:01;;;;;;;;;;;5.90;92.60;;;;;;4953917;28;20469;-64
2021/04/29 00:14:27;;;;;;;;;;;5.90;92.80;;;;;;4950561;28;20017;-63
2021/04/29 00:16:53;;;;;;;;;;;5.90;93.20;;;;;;4950160;29;20025;-63
2021/04/29 00:19:19;;;;;;;;;;;5.90;93.30;;;;;;4949659;28;19982;-64
2021/04/29 00:21:45;;;;;;;;;;;5.80;93.70;;;;;;4953235;28;19965;-63
2021/04/29 00:24:11;;;;;;;;;;;5.80;93.50;;;;;;4953862;28;19932;-64
2021/04/29 00:26:36;;;;;;;;;;;5.80;93.40;;;;;;4953881;29;19933;-63
2021/04/29 00:29:03;;;;;;;;;;;5.80;93.70;;;;;;4954091;28;20001;-63
2021/04/29 00:31:30;;;;;;;;;;;5.80;94.00;;;;;;4953717;29;19938;-63
2021/04/29 00:33:57;;;;;;;;;;;5.70;94.30;;;;;;4953616;28;20012;-63
2021/04/29 00:36:22;;;;;;;;;;;5.60;94.60;;;;;;4953504;29;19977;-63
2021/04/29 00:38:49;;;;;;;;;;;5.60;95.10;;;;;;4953436;28;19973;-64
2021/04/29 00:41:14;;;;;;;;;;;5.50;95.30;;;;;;4953428;29;19922;-64
2021/04/29 00:43:41;;;;;;;;;;;5.50;95.70;;;;;;4953472;29;20021;-64
2021/04/29 00:46:12;;;;;;;;;;;5.50;96.20;;;;;;4953651;29;20020;-63
2021/04/29 00:48:41;;;;;;;;;;;5.40;96.60;;;;;;4953324;28;20148;-64
2021/04/29 00:51:07;;;;;;;;;;;5.40;96.90;;;;;;4952190;29;19938;-64
2021/04/29 00:53:35;;;;;;;;;;;5.40;97.30;;;;;;4953241;28;20334;-63
2021/04/29 00:56:01;;;;;;;;;;;5.30;97.50;;;;;;4953073;29;19930;-64
2021/04/29 00:58:27;;;;;;;;;;;5.40;97.80;;;;;;4943459;29;20025;-63
2021/04/29 01:00:53;;;;;;;;;;;5.30;98.00;;;;;;4953122;29;20025;-63
2021/04/29 01:03:26;;;;;;;;;;;5.30;98.00;;;;;;4943287;29;20016;-63
2021/04/29 01:05:54;;;;;;;;;;;5.40;98.30;;;;;;4953147;29;20411;-64
2021/04/29 01:08:22;;;;;;;;;;;5.40;98.30;;;;;;4953063;29;20030;-64
2021/04/29 01:11:08;;;;;;;;;;;5.40;98.40;;;;;;4950426;28;19933;-64
2021/04/29 01:13:35;;;;;;;;;;;5.40;98.60;;;;;;4951793;28;20432;-64
2021/04/29 01:16:01;;;;;;;;;;;5.40;98.70;;;;;;4951437;29;19930;-64
2021/04/29 01:18:28;;;;;;;;;;;5.30;99.20;;;;;;4952943;29;19933;-64
2021/04/29 01:21:05;;;;;;;;;;;5.30;98.90;;;;;;4967347;28;19941;-64
2021/04/29 01:23:38;;;;;;;;;;;5.30;99.30;;;;;;4952768;29;20005;-64
2021/04/29 01:26:27;;;;;;;;;;;5.20;99.60;;;;;;4952879;29;20028;-64
2021/04/29 01:28:53;;;;;;;;;;;5.20;99.90;;;;;;4933870;29;20017;-64
2021/04/29 01:31:22;;;;;;;;;;;5.20;99.90;;;;;;4952409;28;20030;-64
2021/04/29 01:33:49;;;;;;;;;;;5.20;99.90;;;;;;4952422;28;19958;-64
2021/04/29 01:36:14;;;;;;;;;;;5.20;99.90;;;;;;4952787;29;20511;-64
2021/04/29 01:38:40;;;;;;;;;;;5.10;99.90;;;;;;4952479;28;19981;-64
2021/04/29 01:41:06;;;;;;;;;;;5.10;99.90;;;;;;4952246;29;20013;-64
2021/04/29 01:43:33;;;;;;;;;;;5.10;99.90;;;;;;4952643;28;19923;-64
2021/04/29 01:46:00;;;;;;;;;;;5.10;99.90;;;;;;4952364;29;19931;-64
2021/04/29 01:48:26;;;;;;;;;;;5.10;99.90;;;;;;4952367;28;20017;-64
2021/04/29 01:50:53;;;;;;;;;;;5.10;99.90;;;;;;4952171;29;20018;-64
2021/04/29 01:53:19;;;;;;;;;;;5.10;99.90;;;;;;4951896;28;19994;-64
2021/04/29 01:55:45;;;;;;;;;;;5.00;99.90;;;;;;4951990;29;19969;-64
2021/04/29 01:58:12;;;;;;;;;;;5.00;99.90;;;;;;4952211;28;20093;-64
2021/04/29 02:00:37;;;;;;;;;;;5.00;99.90;;;;;;4952201;29;20384;-63
2021/04/29 02:03:03;;;;;;;;;;;5.00;99.90;;;;;;4951962;28;20049;-64
2021/04/29 02:05:29;;;;;;;;;;;5.00;99.90;;;;;;4952086;29;20021;-64
2021/04/29 02:07:57;;;;;;;;;;;4.90;99.90;;;;;;4949818;28;19928;-64
2021/04/29 02:10:23;;;;;;;;;;;4.90;99.90;;;;;;4955697;28;19926;-64
2021/04/29 02:12:56;;;;;;;;;;;4.80;99.90;;;;;;4951835;28;19977;-64
2021/04/29 02:15:32;;;;;;;;;;;4.80;99.90;;;;;;4951944;29;19938;-64
2021/04/29 02:18:08;;;;;;;;;;;4.80;99.90;;;;;;4943059;29;19923;-64
2021/04/29 02:20:42;;;;;;;;;;;4.80;99.90;;;;;;4951639;29;19926;-64
2021/04/29 02:23:09;;;;;;;;;;;4.80;99.90;;;;;;4951737;29;20025;-65
2021/04/29 02:25:36;;;;;;;;;;;4.80;99.90;;;;;;4951543;28;19933;-64
2021/04/29 02:28:02;;;;;;;;;;;4.80;99.90;;;;;;4951566;29;20306;-64
2021/04/29 02:30:28;;;;;;;;;;;4.70;99.90;;;;;;4950226;29;20407;-64
2021/04/29 02:32:54;;;;;;;;;;;4.70;99.90;;;;;;4951372;29;20049;-64
2021/04/29 02:35:20;;;;;;;;;;;4.70;99.90;;;;;;4951464;29;20159;-65
2021/04/29 02:37:49;;;;;;;;;;;4.60;99.90;;;;;;4951549;29;20032;-64
2021/04/29 02:40:16;;;;;;;;;;;4.60;99.90;;;;;;4951495;28;20009;-64
2021/04/29 02:42:42;;;;;;;;;;;4.70;99.90;;;;;;4950970;28;20068;-64
2021/04/29 02:45:09;;;;;;;;;;;4.60;99.90;;;;;;4951348;29;20041;-64
2021/04/29 02:47:45;;;;;;;;;;;4.60;99.90;;;;;;4949617;28;19933;-64
2021/04/29 02:50:12;;;;;;;;;;;4.50;99.90;;;;;;4939909;29;19954;-64
2021/04/29 02:52:38;;;;;;;;;;;4.50;99.90;;;;;;4951512;28;19984;-64
2021/04/29 02:55:08;;;;;;;;;;;4.50;99.90;;;;;;4966263;28;19926;-64
2021/04/29 02:57:34;;;;;;;;;;;4.50;99.90;;;;;;4951301;28;19926;-64
2021/04/29 03:00:00;;;;;;;;;;;4.50;99.90;;;;;;4951381;29;19926;-64
2021/04/29 03:02:26;;;;;;;;;;;4.50;99.90;;;;;;4949800;28;20021;-64
2021/04/29 03:04:52;;;;;;;;;;;4.40;99.90;;;;;;4950933;28;20021;-64
2021/04/29 03:07:18;;;;;;;;;;;4.40;99.90;;;;;;4950860;29;20013;-64
2021/04/29 03:09:44;;;;;;;;;;;4.40;99.90;;;;;;4950787;29;20365;-64
2021/04/29 03:12:10;;;;;;;;;;;4.40;99.90;;;;;;4954667;28;19935;-64
2021/04/29 03:14:35;;;;;;;;;;;4.30;99.90;;;;;;4951391;29;20137;-64
2021/04/29 03:17:01;;;;;;;;;;;4.30;99.90;;;;;;4950720;29;19931;-64
2021/04/29 03:19:27;;;;;;;;;;;4.30;99.90;;;;;;4950675;29;20020;-64
2021/04/29 03:21:53;;;;;;;;;;;4.30;99.90;;;;;;4950698;28;19978;-64
2021/04/29 03:24:20;;;;;;;;;;;4.30;99.90;;;;;;4949462;29;19984;-64
2021/04/29 03:26:46;;;;;;;;;;;4.30;99.90;;;;;;4950228;28;20005;-64
2021/04/29 03:29:12;;;;;;;;;;;4.30;99.90;;;;;;4938471;29;20013;-64
2021/04/29 03:31:39;;;;;;;;;;;4.30;99.90;;;;;;4950554;28;20016;-65
2021/04/29 03:34:05;;;;;;;;;;;4.30;99.90;;;;;;4950857;29;19933;-64
2021/04/29 03:36:31;;;;;;;;;;;4.30;99.90;;;;;;4950702;29;20712;-64
2021/04/29 03:38:57;;;;;;;;;;;4.30;99.90;;;;;;4950587;29;19933;-64
2021/04/29 03:41:25;;;;;;;;;;;4.30;99.90;;;;;;4950364;29;20459;-64
2021/04/29 03:43:51;;;;;;;;;;;4.30;99.90;;;;;;4950523;29;19929;-64
2021/04/29 03:46:17;;;;;;;;;;;4.40;99.90;;;;;;4950363;29;19923;-64
2021/04/29 03:48:43;;;;;;;;;;;4.40;99.90;;;;;;4950417;28;20396;-64
2021/04/29 03:51:09;;;;;;;;;;;4.40;99.90;;;;;;4950202;28;19926;-64
2021/04/29 03:53:35;;;;;;;;;;;4.50;99.90;;;;;;4950227;29;19926;-64
2021/04/29 03:56:01;;;;;;;;;;;4.50;99.90;;;;;;4953980;28;19931;-64
2021/04/29 03:58:26;;;;;;;;;;;4.50;99.90;;;;;;4954245;28;19954;-64
2021/04/29 04:00:52;;;;;;;;;;;4.50;99.90;;;;;;4954343;29;19933;-64
2021/04/29 04:03:18;;;;;;;;;;;4.60;99.90;;;;;;4943954;29;20898;-64
2021/04/29 04:05:44;;;;;;;;;;;4.60;99.90;;;;;;4954392;29;19976;-64
2021/04/29 04:08:10;;;;;;;;;;;4.70;99.90;;;;;;4954469;28;20017;-64
2021/04/29 04:10:36;;;;;;;;;;;4.80;99.90;;;;;;4957785;28;19923;-64
2021/04/29 04:13:02;;;;;;;;;;;4.80;99.90;;;;;;4953927;28;20394;-64
2021/04/29 04:15:28;;;;;;;;;;;4.80;99.90;;;;;;4953975;29;19933;-64
2021/04/29 04:17:54;;;;;;;;;;;4.80;99.90;;;;;;4953819;29;19985;-64
2021/04/29 04:20:21;;;;;;;;;;;4.90;99.90;;;;;;4953825;29;20009;-64
2021/04/29 04:22:48;;;;;;;;;;;4.90;99.90;;;;;;4953858;29;19922;-64
2021/04/29 04:25:14;;;;;;;;;;;4.90;99.90;;;;;;4952144;29;19926;-64
2021/04/29 04:27:40;;;;;;;;;;;5.10;99.90;;;;;;4953624;29;20042;-64
2021/04/29 04:30:06;;;;;;;;;;;5.10;99.90;;;;;;4951318;29;19926;-64
2021/04/29 04:32:32;;;;;;;;;;;5.20;99.90;;;;;;4945619;29;19927;-65
2021/04/29 04:35:02;;;;;;;;;;;5.30;99.90;;;;;;4951606;29;19926;-64
2021/04/29 04:37:28;;;;;;;;;;;5.40;99.90;;;;;;4953864;29;19986;-64
2021/04/29 04:39:54;;;;;;;;;;;5.40;99.90;;;;;;4952193;29;20020;-65
2021/04/29 04:42:20;;;;;;;;;;;5.50;99.90;;;;;;4952101;28;19937;-65
2021/04/29 04:44:46;;;;;;;;;;;5.70;99.90;;;;;;4947899;29;19954;-67
2021/04/29 04:47:12;;;;;;;;;;;5.90;99.90;;;;;;4951299;28;19980;-66
2021/04/29 04:49:38;;;;;;;;;;;6.00;99.90;;;;;;4943666;28;19930;-69
2021/04/29 04:52:04;;;;;;;;;;;6.10;99.90;;;;;;4951921;28;20310;-65
2021/04/29 04:54:30;;;;;;;;;;;6.20;99.90;;;;;;4951827;28;20365;-66
2021/04/29 04:56:55;;;;;;;;;;;6.30;99.90;;;;;;4957553;28;20021;-65
2021/04/29 04:59:22;;;;;;;;;;;6.40;99.90;;;;;;4950751;29;20528;-67
2021/04/29 05:01:48;;;;;;;;;;;6.60;99.90;;;;;;4940494;29;19926;-64
2021/04/29 05:04:14;;;;;;;;;;;6.80;99.90;;;;;;4953335;28;20652;-65
2021/04/29 05:06:39;;;;;;;;;;;6.90;99.90;;;;;;4949401;28;20025;-69
2021/04/29 05:09:06;;;;;;;;;;;7.10;99.90;;;;;;4966876;28;20017;-66
2021/04/29 05:11:33;;;;;;;;;;;7.20;99.90;;;;;;4956631;28;20306;-66
2021/04/29 05:13:59;;;;;;;;;;;7.40;99.90;;;;;;4952598;28;20478;-64
2021/04/29 05:16:26;;;;;;;;;;;7.50;99.90;;;;;;4952723;29;20673;-66
2021/04/29 05:18:52;;;;;;;;;;;7.70;99.90;;;;;;4952529;29;20386;-63
2021/04/29 05:21:18;;;;;;;;;;;7.80;99.90;;;;;;4957292;28;19922;-65
2021/04/29 05:23:46;;;;;;;;;;;8.00;99.90;;;;;;4953863;28;20399;-66
2021/04/29 05:26:12;;;;;;;;;;;8.10;99.70;;;;;;4942860;29;19933;-66
2021/04/29 05:28:38;;;;;;;;;;;8.20;99.10;;;;;;4946997;29;19980;-65
2021/04/29 05:31:03;;;;;;;;;;;8.30;98.70;;;;;;4952891;29;20361;-66
2021/04/29 05:33:29;;;;;;;;;;;8.50;98.60;;;;;;4950532;29;19926;-68
2021/04/29 05:35:55;;;;;;;;;;;8.70;97.40;;;;;;4950858;28;20456;-65
2021/04/29 05:38:21;;;;;;;;;;;8.90;97.40;;;;;;4948454;28;19926;-65
2021/04/29 05:40:47;;;;;;;;;;;8.90;96.50;;;;;;4950402;29;19926;-65
2021/04/29 05:43:13;;;;;;;;;;;9.00;96.80;;;;;;4951961;28;20462;-64
2021/04/29 05:45:40;;;;;;;;;;;9.10;96.60;;;;;;4983430;28;20032;-65
2021/04/29 05:48:07;;;;;;;;;;;9.30;96.70;;;;;;4950079;28;19933;-67
2021/04/29 05:50:32;;;;;;;;;;;9.50;95.90;;;;;;4983221;28;19926;-65
2021/04/29 05:52:58;;;;;;;;;;;9.60;95.40;;;;;;4950963;28;19937;-64
2021/04/29 05:55:24;;;;;;;;;;;9.80;94.90;;;;;;4953497;28;19925;-64
2021/04/29 05:57:57;;;;;;;;;;;9.90;95.00;;;;;;4954139;28;20017;-63
2021/04/29 06:00:23;;;;;;;;;;;10.10;93.90;;;;;;4948480;28;19929;-64
2021/04/29 06:02:49;;;;;;;;;;;10.40;93.60;;;;;;4948987;29;20021;-64
2021/04/29 06:05:15;;;;;;;;;;;10.60;93.20;;;;;;4950431;28;20074;-64
2021/04/29 06:07:41;;;;;;;;;;;10.70;92.60;;;;;;4951402;28;20054;-64
2021/04/29 06:10:07;;;;;;;;;;;10.70;92.10;;;;;;4951808;28;19964;-64
2021/04/29 06:12:33;;;;;;;;;;;10.80;91.90;;;;;;4953316;28;20418;-64
2021/04/29 06:14:59;;;;;;;;;;;11.00;91.60;;;;;;4951002;29;19926;-63
2021/04/29 06:17:25;;;;;;;;;;;10.90;92.00;;;;;;4946298;28;20333;-69
2021/04/29 06:19:51;;;;;;;;;;;11.00;91.70;;;;;;4975654;28;19927;-65
2021/04/29 06:22:18;;;;;;;;;;;10.90;90.80;;;;;;4950506;28;19965;-72
2021/04/29 06:24:43;;;;;;;;;;;10.90;91.00;;;;;;4940363;29;19954;-71
2021/04/29 06:27:10;;;;;;;;;;;10.80;91.30;;;;;;4980137;28;19926;-71
2021/04/29 06:29:35;;;;;;;;;;;10.80;91.50;;;;;;4950702;29;19923;-70
2021/04/29 06:32:02;;;;;;;;;;;10.80;91.00;;;;;;4951130;29;20442;-65
2021/04/29 06:34:27;;;;;;;;;;;10.70;91.40;;;;;;4951342;28;19980;-70
2021/04/29 06:36:53;;;;;;;;;;;10.70;91.90;;;;;;4951094;29;20298;-67
2021/04/29 06:39:26;;;;;;;;;;;10.70;91.90;;;;;;5147507;27;19915;-66
2021/04/29 06:41:53;;;;;;;;;;;10.90;92.00;;;;;;5138807;27;19946;-70
2021/04/29 06:44:19;;;;;;;;;;;10.80;92.10;;;;;;5143522;27;19988;-70
2021/04/29 06:46:45;;;;;;;;;;;10.90;92.50;;;;;;5142506;27;20394;-68
2021/04/29 06:49:11;;;;;;;;;;;11.00;91.90;;;;;;5143950;27;19930;-69
2021/04/29 06:51:37;;;;;;;;;;;11.00;92.10;;;;;;5132421;27;19966;-69
2021/04/29 06:54:03;;;;;;;;;;;11.20;92.00;;;;;;5144330;27;19969;-68
2021/04/29 06:56:29;;;;;;;;;;;11.10;91.90;;;;;;5169422;27;20014;-67
2021/04/29 06:58:55;;;;;;;;;;;11.10;92.10;;;;;;5144939;27;20418;-69
2021/04/29 07:01:21;;;;;;;;;;;11.10;92.60;;;;;;5143354;27;19927;-69
2021/04/29 07:03:47;;;;;;;;;;;11.30;92.00;;;;;;5178630;27;19928;-69
2021/04/29 07:06:13;;;;;;;;;;;11.40;91.20;;;;;;5142526;27;19950;-68
2021/04/29 07:08:38;;;;;;;;;;;11.60;91.20;;;;;;5145183;27;19982;-68
2021/04/29 07:11:05;;;;;;;;;;;11.70;90.90;;;;;;5121153;27;19935;-71
2021/04/29 07:13:31;;;;;;;;;;;11.80;90.60;;;;;;5132147;27;20026;-72
2021/04/29 07:15:57;;;;;;;;;;;11.80;90.70;;;;;;5175940;27;20847;-71
2021/04/29 07:18:22;;;;;;;;;;;12.00;90.60;;;;;;5142751;27;19977;-71
2021/04/29 07:20:48;;;;;;;;;;;12.20;90.00;;;;;;5134583;27;19933;-67
2021/04/29 07:23:15;;;;;;;;;;;12.40;89.10;;;;;;5143005;27;20022;-67
2021/04/29 07:25:41;;;;;;;;;;;12.70;88.20;;;;;;5141783;27;20384;-66
2021/04/29 07:28:07;;;;;;;;;;;13.20;86.20;;;;;;5142570;27;20022;-67
2021/04/29 07:30:33;;;;;;;;;;;13.30;86.10;;;;;;5130139;27;20014;-68
2021/04/29 07:32:59;;;;;;;;;;;13.80;85.00;;;;;;5124097;27;20030;-67
2021/04/29 07:35:26;;;;;;;;;;;14.10;82.20;;;;;;5139858;27;20030;-67
2021/04/29 07:37:51;;;;;;;;;;;14.30;81.10;;;;;;5132825;27;19943;-68
2021/04/29 07:40:17;;;;;;;;;;;14.20;81.00;;;;;;5140361;27;19923;-67
2021/04/29 07:42:46;;;;;;;;;;;14.10;81.20;;;;;;5140451;27;19930;-68
2021/04/29 07:45:12;;;;;;;;;;;14.40;81.60;;;;;;5139467;27;20010;-72
2021/04/29 07:47:38;;;;;;;;;;;15.00;79.30;;;;;;5175153;27;19927;-73
2021/04/29 07:50:05;;;;;;;;;;;14.80;77.80;;;;;;5130353;27;20011;-71
2021/04/29 07:52:30;;;;;;;;;;;14.60;78.40;;;;;;5161806;27;19928;-72
2021/04/29 07:54:56;;;;;;;;;;;14.30;79.10;;;;;;5126249;27;20200;-71
2021/04/29 07:57:24;;;;;;;;;;;13.80;81.50;;;;;;5121123;27;20014;-70
2021/04/29 07:59:49;;;;;;;;;;;13.60;82.50;;;;;;5126489;27;20030;-68
2021/04/29 08:02:15;;;;;;;;;;;13.40;83.00;;;;;;5128140;27;20072;-69
2021/04/29 08:04:41;;;;;;;;;;;13.10;84.60;;;;;;5127983;27;19999;-69
2021/04/29 08:07:07;;;;;;;;;;;12.90;84.70;;;;;;5128516;27;20290;-70
2021/04/29 08:09:33;;;;;;;;;;;12.80;85.70;;;;;;5109252;27;19976;-70
2021/04/29 08:11:59;;;;;;;;;;;12.80;86.20;;;;;;5123662;27;20027;-69
2021/04/29 08:14:25;;;;;;;;;;;12.70;86.20;;;;;;5116704;27;20011;-69
2021/04/29 08:16:51;;;;;;;;;;;12.60;87.00;;;;;;5160263;27;20026;-70
2021/04/29 08:19:17;;;;;;;;;;;12.60;87.40;;;;;;5107243;27;19950;-69
2021/04/29 08:21:43;;;;;;;;;;;12.70;87.50;;;;;;5121593;27;20018;-69
2021/04/29 08:24:09;;;;;;;;;;;12.80;88.00;;;;;;5127614;27;19931;-71
2021/04/29 08:26:34;;;;;;;;;;;12.70;87.30;;;;;;5126662;27;20314;-69
2021/04/29 08:29:01;;;;;;;;;;;12.70;87.80;;;;;;5125724;27;20002;-70
2021/04/29 08:31:27;;;;;;;;;;;12.80;88.00;;;;;;5142179;27;20847;-70
2021/04/29 08:33:53;;;;;;;;;;;12.90;87.50;;;;;;5125466;27;20014;-68
2021/04/29 08:36:19;;;;;;;;;;;13.00;88.00;;;;;;5159374;27;19927;-68
2021/04/29 08:38:45;;;;;;;;;;;13.20;87.40;;;;;;5126477;27;20008;-68
2021/04/29 08:41:11;;;;;;;;;;;13.30;87.30;;;;;;5126466;27;19978;-68
2021/04/29 08:43:37;;;;;;;;;;;13.70;85.70;;;;;;5154481;27;19924;-70
2021/04/29 08:46:04;;;;;;;;;;;14.10;85.00;;;;;;5125892;27;19969;-70
2021/04/29 08:48:30;;;;;;;;;;;14.50;83.40;;;;;;5126296;27;20589;-71
2021/04/29 08:50:56;;;;;;;;;;;14.70;82.20;;;;;;5125863;27;20030;-70
2021/04/29 08:53:22;;;;;;;;;;;15.00;81.10;;;;;;5125527;27;19927;-71
2021/04/29 08:55:47;;;;;;;;;;;15.30;81.00;;;;;;5124443;27;20307;-71
2021/04/29 08:58:14;;;;;;;;;;;15.40;80.20;;;;;;5126988;27;20298;-72
2021/04/29 09:00:40;;;;;;;;;;;15.80;78.50;;;;;;5123556;27;20382;-71
2021/04/29 09:03:06;;;;;;;;;;;16.20;77.10;;;;;;5126037;27;19929;-71
2021/04/29 09:05:33;;;;;;;;;;;16.60;76.10;;;;;;5114833;27;20343;-71
2021/04/29 09:08:07;;;;;;;;;;;16.60;74.70;;;;;;5142651;27;19974;-70
2021/04/29 09:10:40;;;;;;;;;;;16.90;74.00;;;;;;5120221;27;20341;-70
2021/04/29 09:13:19;;;;;;;;;;;17.50;72.50;;;;;;5135010;27;20291;-69
2021/04/29 09:15:46;;;;;;;;;;;17.90;69.80;;;;;;5122465;27;19966;-72
2021/04/29 09:18:12;;;;;;;;;;;17.90;69.50;;;;;;5160657;27;20010;-71
2021/04/29 09:20:39;;;;;;;;;;;18.00;68.30;;;;;;5115814;27;20030;-71
2021/04/29 09:23:06;;;;;;;;;;;17.70;69.40;;;;;;5127719;27;20037;-70
2021/04/29 09:25:34;;;;;;;;;;;17.40;70.50;;;;;;5157250;27;19934;-75
2021/04/29 09:28:00;;;;;;;;;;;17.10;71.10;;;;;;5119589;27;20453;-77
2021/04/29 09:30:27;;;;;;;;;;;17.00;72.20;;;;;;5106690;27;20394;-79
2021/04/29 09:33:02;;;;;;;;;;;17.30;71.50;;;;;;5125600;27;19963;-75
2021/04/29 09:35:28;;;;;;;;;;;17.90;70.10;;;;;;5158695;27;19974;-75
2021/04/29 09:37:59;;;;;;;;;;;18.10;69.80;;;;;;5125940;27;20054;-75
2021/04/29 09:40:29;;;;;;;;;;;18.20;69.00;;;;;;5125041;27;19935;-75
2021/04/29 09:42:57;;;;;;;;;;;18.30;68.60;;;;;;5124136;27;20347;-75
2021/04/29 09:45:28;;;;;;;;;;;18.40;68.40;;;;;;5125224;27;19927;-76
2021/04/29 09:47:55;;;;;;;;;;;18.30;68.80;;;;;;5156931;27;19923;-75
2021/04/29 09:50:22;;;;;;;;;;;18.40;68.60;;;;;;5127592;27;20457;-75
2021/04/29 09:52:56;;;;;;;;;;;18.50;68.10;;;;;;5122764;27;20517;-73
2021/04/29 09:55:25;;;;;;;;;;;18.30;68.90;;;;;;5127209;27;19927;-74
2021/04/29 09:57:59;;;;;;;;;;;18.00;70.20;;;;;;5139662;27;19935;-75
2021/04/29 10:00:25;;;;;;;;;;;17.70;70.20;;;;;;5160490;27;20451;-72
2021/04/29 10:02:51;;;;;;;;;;;17.30;71.70;;;;;;5106745;27;19979;-73
2021/04/29 10:05:17;;;;;;;;;;;17.00;72.80;;;;;;5143513;27;20302;-73
2021/04/29 10:07:43;;;;;;;;;;;17.10;73.70;;;;;;5140226;27;20019;-73
2021/04/29 10:10:09;;;;;;;;;;;17.10;74.00;;;;;;5157931;27;20050;-71
2021/04/29 10:12:36;;;;;;;;;;;17.20;73.70;;;;;;5118132;27;19970;-73
2021/04/29 10:15:02;;;;;;;;;;;17.00;74.20;;;;;;5113879;27;19930;-74
2021/04/29 10:17:28;;;;;;;;;;;17.70;74.00;;;;;;5124300;27;20018;-74
2021/04/29 10:19:56;;;;;;;;;;;17.90;72.00;;;;;;5111018;27;20030;-74
2021/04/29 10:22:23;;;;;;;;;;;18.20;70.60;;;;;;5121589;27;20068;-74
2021/04/29 10:24:49;;;;;;;;;;;18.30;70.70;;;;;;5127112;27;19930;-75
2021/04/29 10:27:22;;;;;;;;;;;18.20;70.20;;;;;;5124840;27;19923;-78
2021/04/29 10:29:48;;;;;;;;;;;18.30;70.20;;;;;;5159346;27;19939;-76
2021/04/29 10:32:15;;;;;;;;;;;18.40;68.90;;;;;;5126439;27;19928;-77
2021/04/29 10:34:43;;;;;;;;;;;18.30;69.30;;;;;;5141323;27;19965;-71
2021/04/29 10:37:19;;;;;;;;;;;18.30;69.70;;;;;;5107846;28;20017;-76
2021/04/29 10:39:52;;;;;;;;;;;18.30;70.90;;;;;;5141057;27;19928;-74
2021/04/29 10:42:19;;;;;;;;;;;18.20;70.50;;;;;;5126777;27;20458;-73
2021/04/29 10:44:47;;;;;;;;;;;18.20;70.40;;;;;;5125142;27;20025;-73
2021/04/29 10:47:29;;;;;;;;;;;18.30;69.20;;;;;;5126940;27;20019;-69
2021/04/29 10:50:07;;;;;;;;;;;18.20;69.60;;;;;;5158163;27;19927;-73
2021/04/29 10:52:44;;;;;;;;;;;18.40;70.10;;;;;;5141581;27;20376;-75
2021/04/29 10:55:20;;;;;;;;;;;18.40;69.70;;;;;;5125649;27;20585;-76
2021/04/29 10:57:46;;;;;;;;;;;18.50;69.40;;;;;;5106380;28;20014;-75
2021/04/29 11:00:12;;;;;;;;;;;18.50;70.40;;;;;;5125569;28;20381;-75
2021/04/29 11:02:39;;;;;;;;;;;18.30;70.30;;;;;;5157956;27;20027;-75
2021/04/29 11:05:06;;;;;;;;;;;18.40;69.40;;;;;;5125695;28;19924;-74
2021/04/29 11:07:32;;;;;;;;;;;18.60;68.30;;;;;;5140402;27;20475;-75
2021/04/29 11:10:01;;;;;;;;;;;18.30;69.50;;;;;;5124069;28;20043;-75
2021/04/29 11:12:39;;;;;;;;;;;18.60;69.00;;;;;;5119681;28;19966;-76
2021/04/29 11:15:05;;;;;;;;;;;18.80;68.70;;;;;;5111992;27;19972;-74
2021/04/29 11:17:31;;;;;;;;;;;18.50;69.00;;;;;;5157107;27;20025;-73
2021/04/29 11:19:57;;;;;;;;;;;18.40;69.90;;;;;;5116622;28;20030;-68
2021/04/29 11:22:23;;;;;;;;;;;18.60;69.70;;;;;;5122361;27;19923;-68
2021/04/29 11:24:52;;;;;;;;;;;18.40;69.90;;;;;;5108896;27;20321;-69
2021/04/29 11:27:18;;;;;;;;;;;18.50;70.70;;;;;;5128083;27;19977;-69
2021/04/29 11:29:45;;;;;;;;;;;18.40;70.90;;;;;;5116530;27;19970;-70
2021/04/29 11:32:11;;;;;;;;;;;18.50;70.50;;;;;;5109300;27;20394;-70
2021/04/29 11:34:40;;;;;;;;;;;18.90;69.00;;;;;;5148455;27;19984;-70
2021/04/29 11:37:06;;;;;;;;;;;18.60;69.80;;;;;;5109286;27;19967;-66
2021/04/29 11:39:32;;;;;;;;;;;18.50;70.10;;;;;;5095216;28;19989;-67
2021/04/29 11:41:58;;;;;;;;;;;18.40;70.60;;;;;;5103600;27;19924;-67
2021/04/29 11:44:24;;;;;;;;;;;18.40;70.90;;;;;;5101399;27;19964;-70
2021/04/29 11:46:50;;;;;;;;;;;18.20;71.10;;;;;;5140479;27;19950;-69
2021/04/29 11:49:16;;;;;;;;;;;18.30;70.60;;;;;;5101616;27;19975;-76
2021/04/29 11:51:46;;;;;;;;;;;18.50;70.20;;;;;;5095035;27;20666;-68
2021/04/29 11:54:15;;;;;;;;;;;18.60;70.80;;;;;;5102441;27;20018;-69
2021/04/29 11:56:45;;;;;;;;;;;18.50;70.80;;;;;;5109606;27;20030;-75
2021/04/29 11:59:11;;;;;;;;;;;18.40;70.80;;;;;;5114339;27;19976;-76
2021/04/29 12:01:38;;;;;;;;;;;18.20;71.20;;;;;;5131364;27;19963;-75
2021/04/29 12:04:17;;;;;;;;;;;18.10;71.80;;;;;;5117705;27;19923;-74
2021/04/29 12:06:59;;;;;;;;;;;17.90;72.60;;;;;;5120562;27;19928;-75
2021/04/29 12:09:26;;;;;;;;;;;17.70;73.50;;;;;;5141660;27;19927;-75
2021/04/29 12:11:52;;;;;;;;;;;17.60;72.90;;;;;;5109208;27;19971;-75
2021/04/29 12:14:25;;;;;;;;;;;17.40;73.70;;;;;;5108019;27;20406;-76
2021/04/29 12:16:53;;;;;;;;;;;17.50;73.80;;;;;;5108734;27;20023;-69
2021/04/29 12:19:24;;;;;;;;;;;17.50;73.90;;;;;;5110700;27;20353;-69
2021/04/29 12:21:50;;;;;;;;;;;17.50;74.20;;;;;;5112834;27;20014;-69
2021/04/29 12:24:17;;;;;;;;;;;17.80;73.10;;;;;;5116695;27;19978;-70
2021/04/29 12:26:43;;;;;;;;;;;17.70;72.70;;;;;;5137020;27;19971;-70
2021/04/29 12:29:10;;;;;;;;;;;17.70;72.70;;;;;;5111006;27;19970;-70
2021/04/29 12:31:37;;;;;;;;;;;17.70;72.60;;;;;;5112671;27;20028;-70
2021/04/29 12:34:05;;;;;;;;;;;17.50;73.20;;;;;;5133299;27;19934;-70
2021/04/29 12:36:49;;;;;;;;;;;17.50;73.60;;;;;;5138081;27;19982;-70
2021/04/29 12:39:16;;;;;;;;;;;17.30;74.30;;;;;;5098841;28;19935;-69
2021/04/29 12:41:46;;;;;;;;;;;17.20;74.40;;;;;;5125928;27;20029;-71
2021/04/29 12:44:12;;;;;;;;;;;17.40;74.50;;;;;;5128860;27;19928;-71
2021/04/29 12:46:41;;;;;;;;;;;17.50;74.20;;;;;;5116979;27;20034;-71
2021/04/29 12:49:14;;;;;;;;;;;17.50;74.60;;;;;;5130980;27;19942;-72
2021/04/29 12:51:40;;;;;;;;;;;17.60;73.80;;;;;;5119690;27;20390;-71
2021/04/29 12:54:16;;;;;;;;;;;17.40;74.10;;;;;;5113498;27;19928;-71
2021/04/29 12:56:43;;;;;;;;;;;17.50;74.10;;;;;;5139834;27;19934;-74
2021/04/29 12:59:15;;;;;;;;;;;17.50;73.90;;;;;;5143475;27;19979;-73
2021/04/29 13:02:06;;;;;;;;;;;17.60;74.00;;;;;;5088878;27;19967;-73
2021/04/29 13:04:33;;;;;;;;;;;17.70;73.60;;;;;;5112882;27;20397;-75
2021/04/29 13:07:02;;;;;;;;;;;17.70;74.00;;;;;;5110365;27;20396;-75
2021/04/29 13:09:35;;;;;;;;;;;17.70;74.20;;;;;;5121390;27;20032;-75
2021/04/29 13:12:08;;;;;;;;;;;17.50;75.30;;;;;;5112285;27;20018;-75
2021/04/29 13:14:38;;;;;;;;;;;17.40;75.60;;;;;;5106769;27;19927;-75
2021/04/29 13:17:12;;;;;;;;;;;17.10;76.30;;;;;;5117480;27;20026;-75
2021/04/29 13:19:38;;;;;;;;;;;17.10;77.30;;;;;;5148863;27;19928;-76
2021/04/29 13:22:04;;;;;;;;;;;17.10;76.80;;;;;;5120842;27;20509;-75
2021/04/29 13:24:31;;;;;;;;;;;17.20;76.60;;;;;;5154716;27;20022;-74
2021/04/29 13:26:58;;;;;;;;;;;17.30;76.50;;;;;;5118847;27;19927;-74
2021/04/29 13:29:25;;;;;;;;;;;17.40;75.50;;;;;;5141541;27;19923;-74
2021/04/29 13:31:51;;;;;;;;;;;17.50;75.30;;;;;;5117766;27;20010;-74
2021/04/29 13:34:17;;;;;;;;;;;17.70;75.00;;;;;;5157572;27;19927;-75
2021/04/29 13:36:43;;;;;;;;;;;17.80;74.10;;;;;;5120995;27;19931;-75
2021/04/29 13:39:09;;;;;;;;;;;18.00;73.50;;;;;;5142323;27;19931;-74
2021/04/29 13:41:35;;;;;;;;;;;17.90;74.30;;;;;;5118932;27;20758;-75
2021/04/29 13:44:01;;;;;;;;;;;17.80;74.60;;;;;;5125532;27;19928;-75
2021/04/29 13:46:27;;;;;;;;;;;18.10;73.30;;;;;;5119813;27;20051;-75
2021/04/29 13:48:53;;;;;;;;;;;18.20;72.60;;;;;;5125877;27;20014;-75
2021/04/29 13:51:19;;;;;;;;;;;18.30;72.30;;;;;;5124994;27;20037;-75
2021/04/29 13:53:48;;;;;;;;;;;18.20;72.20;;;;;;5125679;27;20031;-75
2021/04/29 13:56:14;;;;;;;;;;;18.30;72.20;;;;;;5140889;27;19970;-75
2021/04/29 13:58:40;;;;;;;;;;;18.40;71.40;;;;;;5121311;27;20019;-75
2021/04/29 14:01:08;;;;;;;;;;;18.30;71.40;;;;;;5123854;27;20054;-75
2021/04/29 14:03:34;;;;;;;;;;;18.20;71.70;;;;;;5126008;27;19934;-75
2021/04/29 14:06:00;;;;;;;;;;;18.00;72.80;;;;;;5106046;27;19928;-75
2021/04/29 14:08:26;;;;;;;;;;;17.90;73.30;;;;;;5148969;27;19928;-74
2021/04/29 14:10:52;;;;;;;;;;;17.90;73.50;;;;;;5107297;27;19928;-75
2021/04/29 14:13:18;;;;;;;;;;;17.70;73.90;;;;;;5115447;27;20042;-75
2021/04/29 14:15:44;;;;;;;;;;;17.60;74.70;;;;;;5121627;27;19969;-75
2021/04/29 14:18:10;;;;;;;;;;;17.50;75.10;;;;;;5108811;27;20022;-75
2021/04/29 14:20:36;;;;;;;;;;;17.60;74.40;;;;;;5115600;27;20583;-75
2021/04/29 14:23:02;;;;;;;;;;;17.60;74.50;;;;;;5126877;27;20025;-75
2021/04/29 14:25:28;;;;;;;;;;;17.70;74.10;;;;;;5124253;27;20022;-75